Time;durP1;ratioP1;P1;durP2;ratioP2;P2;SDS_P1;SDS_P2;PMS_P1;PMS_P2;Temp;Humidity;BMP_temperature;BMP_pressure;BME280_temperature;BME280_humidity;BME280_pressure;Samples;Min_cycle;Max_cycle;Signal;HPM_P1;HPM_P2
2024/04/18 00:01:58;;;;;;;2.78;1.80;;;;;;;3.19;77.88;92521.50;5270769;26;20006;-73
2024/04/18 00:04:24;;;;;;;2.40;1.92;;;;;;;3.05;78.31;92536.53;5274643;26;20014;-72
2024/04/18 00:06:49;;;;;;;2.40;1.80;;;;;;;2.89;78.58;92536.06;5272853;26;20032;-74
2024/04/18 00:09:15;;;;;;;1.98;1.70;;;;;;;3.11;79.00;92540.59;5272298;26;20013;-73
2024/04/18 00:11:41;;;;;;;2.60;2.40;;;;;;;2.86;79.10;92530.66;5271441;26;20085;-75
2024/04/18 00:14:06;;;;;;;2.63;1.80;;;;;;;2.87;79.11;92525.13;5270501;26;20053;-72
2024/04/18 00:16:32;;;;;;;2.08;1.90;;;;;;;2.72;79.73;92529.91;5276011;26;20018;-73
2024/04/18 00:18:57;;;;;;;2.80;2.08;;;;;;;2.86;79.75;92525.41;5270548;26;20400;-73
2024/04/18 00:21:22;;;;;;;3.20;2.25;;;;;;;2.66;79.25;92528.44;5267213;26;20021;-74
2024/04/18 00:23:51;;;;;;;2.90;2.38;;;;;;;2.64;79.49;92515.66;5269701;26;20333;-73
2024/04/18 00:26:16;;;;;;;2.92;2.22;;;;;;;2.50;80.20;92514.88;5270389;26;20075;-71
2024/04/18 00:28:41;;;;;;;2.47;2.28;;;;;;;2.75;80.12;92516.97;5276253;26;20409;-72
2024/04/18 00:31:07;;;;;;;3.05;2.45;;;;;;;2.98;78.94;92523.03;5270816;26;20009;-73
2024/04/18 00:33:32;;;;;;;2.20;1.85;;;;;;;2.76;80.19;92520.38;5268443;26;20025;-73
2024/04/18 00:35:58;;;;;;;2.83;2.33;;;;;;;2.79;78.85;92509.28;5269530;26;20014;-72
2024/04/18 00:38:23;;;;;;;2.50;2.10;;;;;;;2.75;78.73;92509.09;5275574;26;20021;-73
2024/04/18 00:40:49;;;;;;;2.50;2.30;;;;;;;2.64;79.39;92509.63;5267713;26;20006;-73
2024/04/18 00:43:14;;;;;;;3.45;2.67;;;;;;;2.48;79.29;92520.44;5268710;26;20010;-73
2024/04/18 00:45:40;;;;;;;3.65;2.72;;;;;;;2.26;79.43;92519.56;5279095;26;20021;-73
2024/04/18 00:48:06;;;;;;;3.45;2.63;;;;;;;2.37;79.37;92524.31;5275510;26;20009;-73
2024/04/18 00:50:32;;;;;;;3.08;2.58;;;;;;;2.36;79.09;92522.75;5271503;26;20022;-72
2024/04/18 00:52:59;;;;;;;3.30;2.53;;;;;;;2.50;78.89;92520.88;5302279;26;20103;-72
2024/04/18 00:55:28;;;;;;;3.65;3.00;;;;;;;2.43;79.16;92522.38;5268837;26;20028;-73
2024/04/18 00:57:54;;;;;;;2.97;2.67;;;;;;;2.51;78.05;92514.59;5273767;26;20018;-73
2024/04/18 01:00:19;;;;;;;4.00;2.85;;;;;;;2.11;79.21;92518.00;5268807;26;20080;-72
2024/04/18 01:02:44;;;;;;;3.28;2.85;;;;;;;2.27;79.23;92521.13;5269413;26;20006;-73
2024/04/18 01:05:10;;;;;;;3.50;2.65;;;;;;;1.98;79.16;92522.19;5272641;26;20006;-72
2024/04/18 01:07:35;;;;;;;4.00;3.03;;;;;;;1.97;80.67;92523.25;5277916;26;20014;-73
2024/04/18 01:10:01;;;;;;;3.33;2.65;;;;;;;1.97;79.81;92518.00;5277726;26;20014;-73
2024/04/18 01:12:26;;;;;;;3.47;2.83;;;;;;;2.14;79.82;92522.69;5275485;26;20025;-72
2024/04/18 01:14:52;;;;;;;3.25;2.70;;;;;;;2.16;79.45;92517.91;5272101;26;20001;-74
2024/04/18 01:17:17;;;;;;;2.97;2.65;;;;;;;1.98;79.37;92495.97;5272550;26;20532;-73
2024/04/18 01:19:43;;;;;;;4.30;3.00;;;;;;;2.29;79.35;92532.09;5276119;26;20032;-73
2024/04/18 01:22:08;;;;;;;3.42;3.08;;;;;;;2.37;77.47;92523.53;5273082;26;20034;-73
2024/04/18 01:24:34;;;;;;;3.85;3.45;;;;;;;2.26;78.29;92522.19;5271090;26;20006;-73
2024/04/18 01:26:59;;;;;;;3.00;2.70;;;;;;;2.21;77.46;92520.44;5275587;26;20033;-73
2024/04/18 01:29:26;;;;;;;3.88;3.40;;;;;;;2.16;78.12;92511.91;5271312;26;20376;-73
2024/04/18 01:31:52;;;;;;;4.25;3.53;;;;;;;2.12;78.16;92516.94;5276208;26;20010;-73
2024/04/18 01:34:18;;;;;;;4.68;3.55;;;;;;;1.92;79.62;92522.56;5266133;26;20023;-71
2024/04/18 01:36:44;;;;;;;4.03;3.28;;;;;;;2.08;78.98;92515.97;5272547;26;20028;-71
2024/04/18 01:39:09;;;;;;;3.58;2.92;;;;;;;1.99;79.37;92517.72;5277691;26;20018;-73
2024/04/18 01:41:35;;;;;;;3.95;3.47;;;;;;;2.04;79.64;92513.16;5273426;26;20041;-74
2024/04/18 01:44:00;;;;;;;3.80;3.22;;;;;;;2.00;79.05;92514.03;5272915;26;20021;-73
2024/04/18 01:46:26;;;;;;;3.70;3.22;;;;;;;2.00;79.09;92514.81;5276859;26;20017;-74
2024/04/18 01:48:51;;;;;;;3.85;3.28;;;;;;;2.19;79.76;92517.34;5273400;26;20013;-73
2024/04/18 01:51:17;;;;;;;4.32;3.13;;;;;;;2.26;78.61;92528.19;5270611;26;20021;-73
2024/04/18 01:53:42;;;;;;;4.32;3.55;;;;;;;2.47;77.90;92526.75;5267212;26;20006;-73
2024/04/18 01:56:07;;;;;;;4.20;3.15;;;;;;;2.51;77.31;92517.22;5278009;26;20050;-74
2024/04/18 01:58:33;;;;;;;3.97;3.58;;;;;;;2.57;76.81;92527.59;5270787;26;20091;-73
2024/04/18 02:00:58;;;;;;;3.53;2.80;;;;;;;2.66;76.34;92528.44;5274060;26;20010;-74
2024/04/18 02:03:24;;;;;;;7.90;3.40;;;;;;;2.42;76.07;92532.09;5272026;26;20035;-73
2024/04/18 02:05:49;;;;;;;4.10;3.42;;;;;;;2.34;76.20;92538.03;5270391;26;20017;-73
2024/04/18 02:08:15;;;;;;;3.47;3.15;;;;;;;2.33;76.20;92546.97;5270279;26;20009;-73
2024/04/18 02:10:44;;;;;;;3.63;2.85;;;;;;;2.28;77.30;92546.28;5267230;26;20020;-74
2024/04/18 02:13:10;;;;;;;3.80;3.00;;;;;;;2.37;77.19;92545.31;5270316;26;20025;-73
2024/04/18 02:15:35;;;;;;;4.13;2.80;;;;;;;2.29;76.01;92529.47;5271234;26;20380;-73
2024/04/18 02:18:01;;;;;;;3.47;3.10;;;;;;;2.19;77.02;92533.06;5273037;26;20013;-73
2024/04/18 02:20:26;;;;;;;3.95;3.20;;;;;;;2.40;75.68;92555.22;5268102;26;20079;-73
2024/04/18 02:22:51;;;;;;;3.45;2.55;;;;;;;2.52;75.24;92552.88;5273433;26;20086;-73
2024/04/18 02:25:17;;;;;;;3.72;3.15;;;;;;;2.67;74.92;92548.38;5274442;26;20021;-73
2024/04/18 02:27:43;;;;;;;3.25;2.70;;;;;;;2.34;74.52;92561.66;5271553;26;20014;-73
2024/04/18 02:30:10;;;;;;;3.05;2.78;;;;;;;2.27;74.70;92535.00;5265568;26;20555;-74
2024/04/18 02:32:38;;;;;;;3.30;2.97;;;;;;;2.31;75.09;92517.59;5266621;26;21086;-73
2024/04/18 02:35:04;;;;;;;3.10;2.80;;;;;;;2.44;74.35;92550.94;5273239;26;20018;-72
2024/04/18 02:37:31;;;;;;;3.85;3.40;;;;;;;2.39;73.81;92553.69;5269047;26;20010;-72
2024/04/18 02:39:56;;;;;;;4.07;3.22;;;;;;;2.61;73.29;92554.81;5295814;26;20072;-72
2024/04/18 02:42:24;;;;;;;4.07;3.13;;;;;;;2.75;73.12;92558.97;5270456;26;20053;-72
2024/04/18 02:44:49;;;;;;;4.18;3.58;;;;;;;2.74;72.45;92559.28;5264700;26;20072;-73
2024/04/18 02:47:14;;;;;;;4.00;3.42;;;;;;;2.65;72.34;92551.28;5273814;26;20013;-73
2024/04/18 02:49:40;;;;;;;5.68;3.42;;;;;;;2.69;73.76;92556.75;5271932;26;20006;-72
2024/04/18 02:52:05;;;;;;;3.75;3.17;;;;;;;2.79;73.12;92556.56;5271156;26;20028;-72
2024/04/18 02:54:31;;;;;;;4.35;3.60;;;;;;;2.64;73.23;92533.25;5269192;26;20025;-74
2024/04/18 02:56:56;;;;;;;3.63;3.30;;;;;;;2.70;73.60;92553.03;5270417;26;20045;-73
2024/04/18 02:59:22;;;;;;;4.45;3.38;;;;;;;2.68;72.83;92544.69;5269771;26;20027;-73
2024/04/18 03:01:48;;;;;;;4.28;3.70;;;;;;;2.94;72.51;92543.84;5269645;26;20050;-73
2024/04/18 03:04:14;;;;;;;4.35;3.90;;;;;;;2.73;72.53;92558.50;5273543;26;20114;-72
2024/04/18 03:06:39;;;;;;;4.88;4.00;;;;;;;2.83;72.90;92553.03;5266654;26;20079;-73
2024/04/18 03:09:04;;;;;;;3.47;3.17;;;;;;;2.86;72.94;92562.16;5273159;26;20493;-73
2024/04/18 03:11:30;;;;;;;3.80;3.38;;;;;;;2.51;72.56;92525.06;5272352;26;20348;-73
2024/04/18 03:13:55;;;;;;;4.30;3.75;;;;;;;2.62;72.44;92577.38;5271786;26;20021;-73
2024/04/18 03:16:21;;;;;;;3.58;3.28;;;;;;;2.78;73.07;92576.78;5270865;26;20035;-73
2024/04/18 03:18:48;;;;;;;4.43;3.28;;;;;;;2.48;72.85;92551.91;5289920;26;20007;-73
2024/04/18 03:21:14;;;;;;;4.00;3.60;;;;;;;2.61;74.03;92570.56;5264940;26;20026;-72
2024/04/18 03:23:39;;;;;;;4.03;3.50;;;;;;;2.79;73.10;92577.56;5274741;26;20092;-73
2024/04/18 03:26:05;;;;;;;5.43;4.00;;;;;;;2.39;74.24;92569.41;5269043;26;20010;-73
2024/04/18 03:28:30;;;;;;;4.78;4.28;;;;;;;2.44;74.90;92560.66;5266486;26;20017;-73
2024/04/18 03:30:55;;;;;;;4.70;3.97;;;;;;;2.47;75.14;92571.34;5271365;26;20485;-73
2024/04/18 03:33:22;;;;;;;5.22;4.60;;;;;;;2.22;75.47;92550.06;5266988;26;20015;-73
2024/04/18 03:35:48;;;;;;;5.68;4.28;;;;;;;2.37;75.40;92555.81;5295469;26;20088;-73
2024/04/18 03:38:14;;;;;;;5.70;4.57;;;;;;;2.43;74.60;92548.63;5272438;26;20017;-73
2024/04/18 03:40:39;;;;;;;6.50;4.70;;;;;;;2.19;74.48;92556.69;5273008;26;20105;-73
2024/04/18 03:43:05;;;;;;;5.68;4.72;;;;;;;2.10;74.44;92532.22;5271686;26;20021;-75
2024/04/18 03:45:31;;;;;;;4.93;4.43;;;;;;;2.25;74.46;92550.28;5269154;26;20049;-74
2024/04/18 03:47:56;;;;;;;4.97;4.22;;;;;;;2.41;73.72;92574.34;5265901;26;20025;-74
2024/04/18 03:50:22;;;;;;;5.22;4.63;;;;;;;2.18;74.57;92572.69;5265715;26;20599;-73
2024/04/18 03:52:47;;;;;;;5.03;4.18;;;;;;;2.23;74.50;92573.41;5271037;26;20560;-73
2024/04/18 03:55:13;;;;;;;6.20;4.43;;;;;;;2.05;74.50;92584.75;5270585;26;20037;-72
2024/04/18 03:57:39;;;;;;;5.63;4.85;;;;;;;1.99;76.00;92583.28;5267237;26;20085;-73
2024/04/18 04:00:05;;;;;;;6.18;4.97;;;;;;;2.05;75.78;92595.25;5265682;26;20005;-73
2024/04/18 04:02:32;;;;;;;6.05;4.53;;;;;;;2.13;75.34;92599.81;5271942;26;20006;-73
2024/04/18 04:04:58;;;;;;;5.20;4.43;;;;;;;2.34;75.30;92602.84;5267706;26;20014;-73
2024/04/18 04:07:24;;;;;;;8.00;5.45;;;;;;;2.11;75.00;92609.03;5268859;26;20002;-73
2024/04/18 04:09:50;;;;;;;7.47;5.20;;;;;;;2.23;76.10;92615.38;5277139;26;20021;-74
2024/04/18 04:12:15;;;;;;;7.10;5.40;;;;;;;1.92;76.25;92607.25;5275055;26;20153;-74
2024/04/18 04:14:41;;;;;;;5.95;4.70;;;;;;;2.11;76.59;92617.66;5268693;26;20038;-73
2024/04/18 04:17:08;;;;;;;5.57;4.72;;;;;;;2.01;76.16;92621.25;5270806;26;20039;-73
2024/04/18 04:19:34;;;;;;;6.63;5.70;;;;;;;2.15;76.07;92641.50;5274038;26;20448;-73
2024/04/18 04:21:59;;;;;;;7.60;5.30;;;;;;;2.23;76.15;92646.84;5263247;26;20561;-74
2024/04/18 04:24:24;;;;;;;6.38;5.47;;;;;;;2.11;75.84;92646.50;5267699;26;20006;-75
2024/04/18 04:26:50;;;;;;;9.00;5.13;;;;;;;1.74;75.54;92633.47;5269338;26;20528;-74
2024/04/18 04:29:16;;;;;;;6.45;5.30;;;;;;;1.97;76.65;92650.94;5268819;26;20032;-73
2024/04/18 04:31:41;;;;;;;6.35;4.97;;;;;;;2.11;76.78;92669.38;5268993;26;20006;-73
2024/04/18 04:34:07;;;;;;;7.82;6.22;;;;;;;1.91;76.39;92657.38;5273114;26;20034;-73
2024/04/18 04:36:34;;;;;;;7.65;5.90;;;;;;;2.04;76.72;92665.25;5244978;26;20365;-73
2024/04/18 04:38:59;;;;;;;5.57;4.90;;;;;;;2.08;75.91;92668.09;5266249;26;20009;-73
2024/04/18 04:41:26;;;;;;;7.13;6.22;;;;;;;1.91;76.65;92667.84;5262452;26;20021;-76
2024/04/18 04:43:52;;;;;;;9.07;6.43;;;;;;;2.12;76.06;92674.31;5265425;26;20020;-73
2024/04/18 04:46:17;;;;;;;5.88;5.30;;;;;;;2.21;74.73;92672.56;5275965;26;20517;-72
2024/04/18 04:48:43;;;;;;;5.10;4.53;;;;;;;2.18;74.64;92667.91;5271845;26;20017;-73
2024/04/18 04:51:08;;;;;;;5.68;5.03;;;;;;;2.31;75.29;92676.88;5266117;26;20013;-73
2024/04/18 04:53:34;;;;;;;7.47;5.05;;;;;;;2.34;74.17;92666.59;5270072;26;20037;-73
2024/04/18 04:55:59;;;;;;;6.20;5.25;;;;;;;2.35;73.64;92683.88;5270706;26;20444;-73
2024/04/18 04:58:25;;;;;;;5.32;4.75;;;;;;;2.47;73.38;92676.31;5266528;26;20017;-72
2024/04/18 05:00:58;;;;;;;6.63;5.72;;;;;;;2.33;73.38;92633.53;5254616;26;20037;-74
2024/04/18 05:03:23;;;;;;;6.07;5.47;;;;;;;2.45;72.23;92667.19;5261535;26;20964;-75
2024/04/18 05:05:49;;;;;;;8.95;4.30;;;;;;;2.57;72.76;92696.34;5262641;26;20014;-73
2024/04/18 05:08:14;;;;;;;6.93;4.45;;;;;;;2.75;72.41;92692.06;5264570;26;20027;-73
2024/04/18 05:10:44;;;;;;;4.78;4.00;;;;;;;2.86;71.24;92703.97;5267238;26;20013;-74
2024/04/18 05:13:13;;;;;;;6.03;3.90;;;;;;;2.73;71.22;92699.47;5262841;26;20010;-73
2024/04/18 05:15:39;;;;;;;6.05;4.03;;;;;;;2.81;71.68;92701.44;5291717;26;20006;-73
2024/04/18 05:18:05;;;;;;;4.15;3.63;;;;;;;2.79;72.63;92709.59;5276494;26;20376;-73
2024/04/18 05:20:31;;;;;;;3.85;3.45;;;;;;;2.78;70.18;92709.91;5267778;26;20010;-73
2024/04/18 05:22:56;;;;;;;5.35;3.50;;;;;;;2.75;70.48;92711.25;5267598;26;20007;-74
2024/04/18 05:25:25;;;;;;;4.55;3.92;;;;;;;2.91;70.36;92711.75;5262516;26;20022;-73
2024/04/18 05:28:03;;;;;;;4.00;3.50;;;;;;;3.03;70.35;92712.03;5263062;26;20054;-74
2024/04/18 05:33:13;;;;;;;5.22;3.50;;;;;;;3.21;70.15;92720.88;5263021;26;20024;-73
2024/04/18 05:35:38;;;;;;;5.25;4.25;;;;;;;2.80;70.96;92715.63;5262387;26;20018;-73
2024/04/18 05:38:04;;;;;;;5.47;4.45;;;;;;;2.78;71.36;92713.31;5262113;26;20386;-73
2024/04/18 05:40:29;;;;;;;5.60;4.03;;;;;;;2.83;71.84;92704.53;5265682;26;20105;-73
2024/04/18 05:42:54;;;;;;;5.20;3.80;;;;;;;2.94;72.13;92708.53;5264129;26;20529;-73
2024/04/18 05:45:20;;;;;;;3.75;3.45;;;;;;;3.26;70.61;92712.91;5264761;26;20041;-73
2024/04/18 05:47:45;;;;;;;3.72;3.38;;;;;;;3.02;70.94;92713.09;5263505;26;20077;-73
2024/04/18 05:50:11;;;;;;;3.15;2.85;;;;;;;2.83;70.08;92663.31;5263595;26;20089;-73
2024/04/18 05:52:36;;;;;;;3.58;3.17;;;;;;;3.10;69.25;92673.00;5253836;26;20024;-73
2024/04/18 05:55:01;;;;;;;3.97;3.58;;;;;;;3.63;70.16;92714.47;5299730;26;20026;-73
2024/04/18 05:57:27;;;;;;;3.63;2.90;;;;;;;3.65;69.60;92709.72;5263066;26;20006;-73
2024/04/18 05:59:52;;;;;;;3.17;2.88;;;;;;;3.49;69.48;92695.31;5258968;26;20473;-73
2024/04/18 06:02:18;;;;;;;9.13;3.85;;;;;;;3.46;68.20;92716.97;5266209;26;20021;-75
2024/04/18 06:04:43;;;;;;;3.15;2.90;;;;;;;3.68;69.03;92714.38;5267437;26;20601;-73
2024/04/18 06:07:09;;;;;;;5.93;2.72;;;;;;;3.67;69.58;92718.09;5266455;26;20003;-72
2024/04/18 06:09:34;;;;;;;3.00;2.70;;;;;;;3.68;68.23;92709.09;5257952;26;20022;-72
2024/04/18 06:11:59;;;;;;;3.05;2.70;;;;;;;3.58;68.46;92698.81;5273131;26;20009;-73
2024/04/18 06:14:25;;;;;;;3.95;3.15;;;;;;;3.48;68.92;92706.94;5265980;26;21068;-74
2024/04/18 06:16:52;;;;;;;6.07;5.32;;;;;;;3.51;67.56;92708.97;5261469;26;20611;-71
2024/04/18 06:19:18;;;;;;;4.35;3.13;;;;;;;3.86;66.36;92700.31;5269493;26;20951;-71
2024/04/18 06:21:43;;;;;;;2.70;2.50;;;;;;;3.70;64.83;92702.50;5270244;26;20018;-72
2024/04/18 06:24:09;;;;;;;3.08;2.70;;;;;;;3.60;64.59;92702.72;5270388;26;20029;-74
2024/04/18 06:26:34;;;;;;;3.30;3.00;;;;;;;3.59;64.59;92708.25;5264861;26;20033;-74
2024/04/18 06:29:00;;;;;;;2.58;2.28;;;;;;;3.45;63.42;92704.88;5269556;26;20411;-72
2024/04/18 06:31:25;;;;;;;5.15;2.65;;;;;;;3.34;63.41;92712.97;5268842;26;20014;-73
2024/04/18 06:33:50;;;;;;;3.75;2.75;;;;;;;3.51;63.85;92715.00;5277518;26;20018;-72
2024/04/18 06:36:16;;;;;;;3.33;2.97;;;;;;;3.59;62.80;92721.41;5263478;26;20014;-72
2024/04/18 06:38:41;;;;;;;4.50;2.97;;;;;;;3.65;61.60;92720.22;5270840;26;20006;-72
2024/04/18 06:41:06;;;;;;;3.67;2.35;;;;;;;3.79;61.51;92720.97;5302056;26;20025;-73
2024/04/18 06:43:32;;;;;;;3.38;2.97;;;;;;;3.56;61.85;92722.78;5269561;26;20357;-72
2024/04/18 06:45:57;;;;;;;3.60;2.70;;;;;;;3.77;62.47;92720.50;5277898;26;20058;-73
2024/04/18 06:48:23;;;;;;;6.32;2.92;;;;;;;3.72;61.94;92715.34;5266584;26;20507;-73
2024/04/18 06:50:48;;;;;;;3.25;2.55;;;;;;;3.86;62.44;92731.09;5271626;26;20006;-73
2024/04/18 06:53:14;;;;;;;3.20;2.58;;;;;;;3.94;63.06;92736.41;5266031;26;20042;-73
2024/04/18 06:55:39;;;;;;;3.08;2.47;;;;;;;4.33;61.59;92737.66;5262996;26;20476;-73
2024/04/18 06:58:05;;;;;;;2.85;2.63;;;;;;;4.29;60.20;92734.81;5268655;26;21331;-74
2024/04/18 07:00:31;;;;;;;3.78;3.40;;;;;;;4.09;58.97;92715.00;5291114;26;20037;-72
2024/04/18 07:02:56;;;;;;;2.30;2.03;;;;;;;4.23;60.08;92730.75;5261960;26;20024;-73
2024/04/18 07:05:22;;;;;;;2.88;2.50;;;;;;;4.64;59.51;92741.09;5267309;26;20372;-73
2024/04/18 07:07:50;;;;;;;2.15;1.92;;;;;;;4.40;58.37;92735.38;5267439;26;20022;-73
2024/04/18 07:10:16;;;;;;;3.83;2.05;;;;;;;4.37;58.61;92738.59;5263628;26;20005;-73
2024/04/18 07:12:41;;;;;;;3.72;2.20;;;;;;;4.49;58.56;92749.38;5267165;26;20516;-73
2024/04/18 07:15:07;;;;;;;2.63;2.42;;;;;;;4.54;58.52;92736.09;5267937;26;20025;-73
2024/04/18 07:17:32;;;;;;;2.97;2.35;;;;;;;4.82;57.88;92740.09;5264343;26;20540;-72
2024/04/18 07:19:58;;;;;;;3.08;2.40;;;;;;;4.76;57.61;92743.94;5269375;26;20170;-73
2024/04/18 07:22:23;;;;;;;9.70;3.28;;;;;;;4.75;58.74;92747.66;5263285;26;20033;-73
2024/04/18 07:24:49;;;;;;;4.05;2.72;;;;;;;4.78;59.15;92754.97;5267978;26;20466;-73
2024/04/18 07:27:15;;;;;;;5.13;2.63;;;;;;;4.84;60.86;92745.09;5263391;26;20025;-73
2024/04/18 07:29:40;;;;;;;5.57;3.03;;;;;;;4.72;59.93;92750.13;5263585;26;20424;-73
2024/04/18 07:32:07;;;;;;;4.68;3.78;;;;;;;4.49;60.46;92759.91;5264626;26;20006;-73
2024/04/18 07:34:33;;;;;;;3.20;2.78;;;;;;;4.59;60.93;92770.19;5264627;26;20032;-73
2024/04/18 07:36:58;;;;;;;3.95;2.90;;;;;;;4.33;60.78;92763.97;5268751;26;20010;-74
2024/04/18 07:39:25;;;;;;;4.50;3.10;;;;;;;4.44;62.31;92771.34;5260473;26;20016;-73
2024/04/18 07:41:50;;;;;;;4.55;3.13;;;;;;;4.48;62.06;92785.44;5262544;26;20055;-73
2024/04/18 07:44:16;;;;;;;4.55;3.60;;;;;;;4.34;62.63;92786.59;5263638;26;20773;-73
2024/04/18 07:46:41;;;;;;;2.78;2.40;;;;;;;4.27;61.99;92785.09;5267401;26;20042;-73
2024/04/18 07:49:08;;;;;;;3.33;2.95;;;;;;;4.14;62.06;92775.41;5261522;26;20345;-73
2024/04/18 07:51:33;;;;;;;4.22;3.45;;;;;;;4.38;62.79;92774.38;5264690;26;20457;-73
2024/04/18 07:53:58;;;;;;;3.25;2.95;;;;;;;4.53;61.21;92766.91;5261719;26;20005;-73
2024/04/18 07:56:24;;;;;;;3.25;2.60;;;;;;;4.82;59.96;92776.19;5263901;26;20016;-73
2024/04/18 07:58:49;;;;;;;3.90;2.25;;;;;;;4.77;56.34;92771.84;5288765;26;20512;-73
2024/04/18 08:01:16;;;;;;;2.25;2.05;;;;;;;4.82;55.55;92777.00;5269663;26;20060;-73
2024/04/18 08:03:41;;;;;;;3.25;2.13;;;;;;;5.01;55.74;92787.31;5263092;26;20535;-73
2024/04/18 08:06:07;;;;;;;2.03;1.83;;;;;;;5.28;55.63;92781.09;5266751;26;20021;-74
2024/04/18 08:08:32;;;;;;;3.60;2.20;;;;;;;4.93;54.29;92786.19;5262531;26;20088;-74
2024/04/18 08:10:58;;;;;;;2.05;1.88;;;;;;;5.13;56.96;92783.03;5260435;26;20089;-74
2024/04/18 08:13:23;;;;;;;2.28;2.08;;;;;;;5.18;56.10;92791.88;5266653;26;20672;-73
2024/04/18 08:15:49;;;;;;;2.95;2.50;;;;;;;5.30;54.97;92810.53;5265892;26;20353;-73
2024/04/18 08:18:19;;;;;;;3.95;2.78;;;;;;;5.04;54.66;92798.00;5268312;26;20095;-73
2024/04/18 08:20:44;;;;;;;2.50;2.30;;;;;;;5.29;55.04;92808.97;5259961;26;20046;-73
2024/04/18 08:23:10;;;;;;;2.83;2.60;;;;;;;5.30;54.02;92824.50;5264791;26;20021;-73
2024/04/18 08:25:35;;;;;;;3.00;2.60;;;;;;;5.34;55.28;92817.53;5234994;26;20649;-73
2024/04/18 08:28:01;;;;;;;5.70;2.65;;;;;;;5.38;53.59;92820.34;5267137;26;20654;-73
2024/04/18 08:30:26;;;;;;;2.33;2.13;;;;;;;5.47;53.76;92821.16;5263987;26;20006;-73
2024/04/18 08:32:52;;;;;;;2.92;2.67;;;;;;;5.40;53.30;92805.78;5267869;26;20373;-73
2024/04/18 08:35:19;;;;;;;2.42;2.22;;;;;;;5.32;52.87;92808.38;5265976;26;20010;-73
2024/04/18 08:37:45;;;;;;;2.35;2.15;;;;;;;5.41;54.04;92825.00;5281301;26;20529;-73
2024/04/18 08:40:11;;;;;;;2.22;1.92;;;;;;;5.34;54.51;92828.09;5269100;26;22330;-73
2024/04/18 08:42:36;;;;;;;2.00;1.80;;;;;;;5.34;54.08;92824.66;5262915;26;20006;-73
2024/04/18 08:45:07;;;;;;;3.42;2.08;;;;;;;5.43;53.87;92822.88;5266524;26;20007;-73
2024/04/18 08:47:33;;;;;;;2.05;1.85;;;;;;;5.42;54.62;92824.72;5263412;26;20468;-74
2024/04/18 08:49:59;;;;;;;2.22;1.85;;;;;;;5.28;54.48;92826.69;5261800;26;20093;-73
2024/04/18 08:52:30;;;;;;;2.10;1.90;;;;;;;5.19;54.61;92828.47;5259639;26;20003;-73
2024/04/18 08:54:56;;;;;;;2.20;2.00;;;;;;;5.30;54.84;92826.34;5262950;26;20002;-73
2024/04/18 08:57:25;;;;;;;1.92;1.83;;;;;;;5.29;54.17;92820.31;5263698;26;20088;-74
2024/04/18 08:59:56;;;;;;;2.08;1.88;;;;;;;5.28;54.43;92823.25;5264818;26;20241;-73
2024/04/18 09:02:23;;;;;;;2.30;2.10;;;;;;;5.33;54.71;92823.91;5269773;26;20005;-73
2024/04/18 09:04:48;;;;;;;2.20;2.00;;;;;;;5.31;54.90;92820.00;5260165;26;20009;-74
2024/04/18 09:07:14;;;;;;;4.32;2.00;;;;;;;5.60;55.42;92832.69;5261046;26;20006;-72
2024/04/18 09:09:40;;;;;;;4.82;2.97;;;;;;;5.48;55.38;92830.63;5267788;26;20014;-74
2024/04/18 09:12:06;;;;;;;6.75;3.95;;;;;;;5.23;59.27;92832.09;5265752;26;20029;-73
2024/04/18 09:14:32;;;;;;;5.25;3.65;;;;;;;5.37;60.01;92834.63;5269837;26;20014;-73
2024/04/18 09:16:57;;;;;;;4.25;3.67;;;;;;;5.20;60.65;92818.72;5270812;26;20461;-74
2024/04/18 09:19:24;;;;;;;7.05;4.57;;;;;;;5.22;59.76;92822.63;5263439;26;20548;-73
2024/04/18 09:21:49;;;;;;;5.93;3.67;;;;;;;5.70;59.94;92838.47;5272341;26;20189;-73
2024/04/18 09:24:15;;;;;;;6.15;3.33;;;;;;;5.47;59.72;92835.13;5267039;26;20017;-73
2024/04/18 09:26:40;;;;;;;4.65;3.45;;;;;;;5.51;59.74;92837.94;5267749;26;20345;-73
2024/04/18 09:29:06;;;;;;;3.92;3.38;;;;;;;5.44;60.68;92834.94;5272727;26;20349;-73
2024/04/18 09:31:32;;;;;;;4.35;3.17;;;;;;;5.38;59.93;92833.53;5265469;26;20075;-73
2024/04/18 09:33:58;;;;;;;4.43;3.63;;;;;;;4.92;60.90;92782.00;5274674;26;20021;-74
2024/04/18 09:36:23;;;;;;;4.50;3.08;;;;;;;5.30;59.77;92836.91;5272932;26;20049;-73
2024/04/18 09:38:49;;;;;;;4.35;3.40;;;;;;;5.40;59.66;92844.53;5267216;26;20005;-73
2024/04/18 09:41:19;;;;;;;5.03;4.20;;;;;;;5.26;58.51;92835.94;5270768;26;20005;-73
2024/04/18 09:44:03;;;;;;;4.25;2.78;;;;;;;5.44;58.25;92842.84;5268971;26;20002;-73
2024/04/18 09:46:28;;;;;;;3.97;2.67;;;;;;;5.44;58.49;92840.22;5274968;26;20606;-73
2024/04/18 09:48:55;;;;;;;3.00;2.40;;;;;;;5.77;57.50;92849.38;5266234;26;20014;-73
2024/04/18 09:51:21;;;;;;;4.10;2.50;;;;;;;5.86;58.96;92836.97;5265256;26;20002;-73
2024/04/18 09:53:49;;;;;;;4.93;2.53;;;;;;;5.95;55.71;92837.75;5266445;26;20014;-73
2024/04/18 09:56:17;;;;;;;4.45;1.88;;;;;;;6.12;55.25;92836.22;5264850;26;20025;-74
2024/04/18 09:58:44;;;;;;;2.40;2.20;;;;;;;6.33;52.75;92824.00;5268886;26;20032;-73
2024/04/18 10:01:11;;;;;;;2.70;2.33;;;;;;;6.32;53.09;92840.94;5269600;26;20053;-73
2024/04/18 10:03:37;;;;;;;4.35;2.15;;;;;;;6.31;55.34;92840.16;5266794;26;20010;-73
2024/04/18 10:06:08;;;;;;;4.72;3.00;;;;;;;6.26;54.82;92842.19;5255777;26;20054;-73
2024/04/18 10:08:39;;;;;;;2.70;2.00;;;;;;;6.21;55.22;92844.97;5269637;26;20488;-74
2024/04/18 10:11:05;;;;;;;4.32;2.40;;;;;;;6.28;54.58;92832.88;5264822;26;20050;-74
2024/04/18 10:13:30;;;;;;;3.00;2.70;;;;;;;6.59;56.00;92838.00;5261358;26;20581;-74
2024/04/18 10:16:22;;;;;;;2.20;2.00;;;;;;;6.37;52.12;92835.50;5273625;26;20052;-74
2024/04/18 10:18:47;;;;;;;2.45;2.10;;;;;;;6.49;52.35;92830.41;5263769;26;20020;-73
2024/04/18 10:21:25;;;;;;;2.58;1.90;;;;;;;6.11;50.78;92803.78;5264792;26;20006;-73
2024/04/18 10:23:53;;;;;;;2.17;1.98;;;;;;;6.39;49.70;92838.63;5271143;26;20523;-73
2024/04/18 10:26:20;;;;;;;2.35;2.10;;;;;;;6.34;49.19;92854.63;5271897;26;20088;-73
2024/04/18 10:28:47;;;;;;;4.57;1.90;;;;;;;6.71;49.50;92843.44;5262670;26;20551;-73
2024/04/18 10:31:14;;;;;;;3.72;2.20;;;;;;;6.76;52.08;92840.63;5267047;26;20014;-67
2024/04/18 10:33:39;;;;;;;4.88;2.70;;;;;;;6.54;53.21;92797.75;5264024;26;20571;-74
2024/04/18 10:36:09;;;;;;;3.05;2.70;;;;;;;6.18;54.42;92856.91;5272702;26;20025;-73
2024/04/18 10:38:41;;;;;;;5.43;3.25;;;;;;;6.45;54.93;92850.59;5270664;26;20029;-73
2024/04/18 10:41:10;;;;;;;5.32;3.67;;;;;;;6.22;54.62;92852.56;5272553;26;20012;-73
2024/04/18 10:43:36;;;;;;;2.53;2.33;;;;;;;6.39;56.03;92851.84;5268646;26;20107;-74
2024/04/18 10:46:06;;;;;;;6.20;3.30;;;;;;;6.26;55.74;92847.47;5300059;26;20036;-73
2024/04/18 10:48:32;;;;;;;4.68;3.25;;;;;;;6.31;56.42;92826.22;5269304;26;20050;-73
2024/04/18 10:50:59;;;;;;;4.78;3.45;;;;;;;6.82;55.87;92849.97;5269181;26;20006;-73
2024/04/18 10:53:24;;;;;;;5.00;3.13;;;;;;;6.38;55.19;92802.75;5265256;26;20056;-73
2024/04/18 10:55:51;;;;;;;3.83;3.35;;;;;;;6.86;56.12;92845.59;5265541;26;20017;-74
2024/04/18 10:58:17;;;;;;;5.75;3.15;;;;;;;6.70;55.06;92857.72;5265873;26;20010;-73
2024/04/18 11:00:43;;;;;;;3.20;2.33;;;;;;;6.61;55.51;92856.97;5262370;26;20036;-73
2024/04/18 11:03:09;;;;;;;4.00;2.45;;;;;;;6.42;55.75;92861.75;5265882;26;20978;-74
2024/04/18 11:05:37;;;;;;;4.05;2.50;;;;;;;6.65;55.07;92855.25;5270079;26;20503;-73
2024/04/18 11:08:03;;;;;;;2.80;2.38;;;;;;;6.70;54.78;92865.66;5261672;26;20022;-73
2024/04/18 11:10:29;;;;;;;3.00;2.50;;;;;;;6.38;54.36;92835.22;5256723;26;20469;-74
2024/04/18 11:12:56;;;;;;;3.20;2.65;;;;;;;6.79;55.47;92855.88;5258366;26;20001;-73
2024/04/18 11:15:22;;;;;;;5.38;3.05;;;;;;;7.03;54.67;92854.59;5270871;26;22234;-74
2024/04/18 11:17:48;;;;;;;3.65;2.30;;;;;;;7.02;54.24;92864.41;5271599;26;21183;-74
2024/04/18 11:20:13;;;;;;;7.28;2.53;;;;;;;7.02;54.07;92867.03;5272758;26;20017;-73
2024/04/18 11:22:40;;;;;;;3.88;2.08;;;;;;;7.08;52.12;92865.03;5269078;26;20002;-73
2024/04/18 11:25:09;;;;;;;3.00;1.92;;;;;;;7.05;52.16;92865.63;5269820;26;20006;-73
2024/04/18 11:27:35;;;;;;;2.30;2.08;;;;;;;7.07;50.71;92868.75;5272992;26;20018;-73
2024/04/18 11:30:02;;;;;;;2.92;2.10;;;;;;;7.35;50.99;92869.94;5271854;26;20030;-74
2024/04/18 11:32:28;;;;;;;4.32;1.90;;;;;;;7.22;51.56;92873.56;5270850;26;20005;-73
2024/04/18 11:34:53;;;;;;;2.78;2.30;;;;;;;7.24;51.86;92876.63;5269123;26;20010;-73
2024/04/18 11:37:19;;;;;;;4.00;3.70;;;;;;;6.86;50.19;92884.47;5271171;26;20560;-74
2024/04/18 11:39:44;;;;;;;2.25;2.05;;;;;;;6.92;51.25;92869.22;5278441;26;20091;-74